sensor_id;sensor_type;location;lat;lon;timestamp;temperature;humidity
8994;DHT22;4532;50.886;4.700;2022-08-03T00:02:17;25.90;91.60
8994;DHT22;4532;50.886;4.700;2022-08-03T00:04:47;25.80;91.60
8994;DHT22;4532;50.886;4.700;2022-08-03T00:07:15;25.80;91.60
8994;DHT22;4532;50.886;4.700;2022-08-03T00:09:45;25.70;91.70
8994;DHT22;4532;50.886;4.700;2022-08-03T00:12:12;25.70;91.70
8994;DHT22;4532;50.886;4.700;2022-08-03T00:14:40;25.60;91.70
8994;DHT22;4532;50.886;4.700;2022-08-03T00:17:07;25.60;91.70
8994;DHT22;4532;50.886;4.700;2022-08-03T00:19:35;25.50;91.70
8994;DHT22;4532;50.886;4.700;2022-08-03T00:22:02;25.50;91.80
8994;DHT22;4532;50.886;4.700;2022-08-03T00:24:31;25.50;91.80
8994;DHT22;4532;50.886;4.700;2022-08-03T00:27:03;25.40;91.80
8994;DHT22;4532;50.886;4.700;2022-08-03T00:29:30;25.40;91.80
8994;DHT22;4532;50.886;4.700;2022-08-03T00:31:57;25.30;91.80
8994;DHT22;4532;50.886;4.700;2022-08-03T00:34:26;25.30;91.90
8994;DHT22;4532;50.886;4.700;2022-08-03T00:37:02;25.30;91.90
8994;DHT22;4532;50.886;4.700;2022-08-03T00:39:32;25.20;92.00
8994;DHT22;4532;50.886;4.700;2022-08-03T00:42:03;25.20;92.00
8994;DHT22;4532;50.886;4.700;2022-08-03T00:44:31;25.10;92.10
8994;DHT22;4532;50.886;4.700;2022-08-03T00:47:05;25.10;92.00
8994;DHT22;4532;50.886;4.700;2022-08-03T00:49:32;25.00;92.10
8994;DHT22;4532;50.886;4.700;2022-08-03T00:52:02;25.00;92.10
8994;DHT22;4532;50.886;4.700;2022-08-03T00:54:37;25.00;92.20
8994;DHT22;4532;50.886;4.700;2022-08-03T00:57:04;25.00;92.10
8994;DHT22;4532;50.886;4.700;2022-08-03T00:59:32;24.90;92.20
8994;DHT22;4532;50.886;4.700;2022-08-03T01:02:05;24.90;92.20
8994;DHT22;4532;50.886;4.700;2022-08-03T01:04:35;24.80;92.30
8994;DHT22;4532;50.886;4.700;2022-08-03T01:07:07;24.80;92.20
8994;DHT22;4532;50.886;4.700;2022-08-03T01:09:58;24.80;92.40
8994;DHT22;4532;50.886;4.700;2022-08-03T01:12:50;24.80;92.40
8994;DHT22;4532;50.886;4.700;2022-08-03T01:15:36;24.70;92.60
8994;DHT22;4532;50.886;4.700;2022-08-03T01:20:33;24.70;92.30
8994;DHT22;4532;50.886;4.700;2022-08-03T01:31:58;24.60;92.40
8994;DHT22;4532;50.886;4.700;2022-08-03T01:34:51;24.50;92.50
8994;DHT22;4532;50.886;4.700;2022-08-03T01:37:33;24.50;92.50
8994;DHT22;4532;50.886;4.700;2022-08-03T01:40:05;24.50;92.60
8994;DHT22;4532;50.886;4.700;2022-08-03T01:42:35;24.50;92.50
8994;DHT22;4532;50.886;4.700;2022-08-03T01:45:05;24.40;92.50
8994;DHT22;4532;50.886;4.700;2022-08-03T01:47:33;24.30;92.50
8994;DHT22;4532;50.886;4.700;2022-08-03T01:50:02;24.30;92.60
8994;DHT22;4532;50.886;4.700;2022-08-03T01:52:34;24.30;92.70
8994;DHT22;4532;50.886;4.700;2022-08-03T01:55:07;24.30;92.70
8994;DHT22;4532;50.886;4.700;2022-08-03T01:57:37;24.20;92.70
8994;DHT22;4532;50.886;4.700;2022-08-03T02:00:26;24.20;92.80
8994;DHT22;4532;50.886;4.700;2022-08-03T02:02:59;24.10;92.80
8994;DHT22;4532;50.886;4.700;2022-08-03T02:05:31;24.10;92.80
8994;DHT22;4532;50.886;4.700;2022-08-03T02:08:01;24.10;92.90
8994;DHT22;4532;50.886;4.700;2022-08-03T02:10:30;24.00;92.90
8994;DHT22;4532;50.886;4.700;2022-08-03T02:13:04;24.00;92.90
8994;DHT22;4532;50.886;4.700;2022-08-03T02:15:36;24.00;92.90
8994;DHT22;4532;50.886;4.700;2022-08-03T02:18:05;23.90;92.90
8994;DHT22;4532;50.886;4.700;2022-08-03T02:20:37;23.90;93.00
8994;DHT22;4532;50.886;4.700;2022-08-03T02:23:05;23.90;93.10
8994;DHT22;4532;50.886;4.700;2022-08-03T02:25:40;23.80;93.00
8994;DHT22;4532;50.886;4.700;2022-08-03T02:28:18;23.80;93.20
8994;DHT22;4532;50.886;4.700;2022-08-03T02:30:53;23.80;93.20
8994;DHT22;4532;50.886;4.700;2022-08-03T02:33:30;23.80;93.30
8994;DHT22;4532;50.886;4.700;2022-08-03T02:36:00;23.70;93.30
8994;DHT22;4532;50.886;4.700;2022-08-03T02:38:32;23.70;93.20
8994;DHT22;4532;50.886;4.700;2022-08-03T02:41:00;23.70;93.30
8994;DHT22;4532;50.886;4.700;2022-08-03T02:43:30;23.70;93.20
8994;DHT22;4532;50.886;4.700;2022-08-03T02:46:24;23.60;93.20
8994;DHT22;4532;50.886;4.700;2022-08-03T02:48:55;23.60;93.30
8994;DHT22;4532;50.886;4.700;2022-08-03T02:51:24;23.60;93.20
8994;DHT22;4532;50.886;4.700;2022-08-03T02:53:54;23.50;93.20
8994;DHT22;4532;50.886;4.700;2022-08-03T02:56:24;23.50;93.30
8994;DHT22;4532;50.886;4.700;2022-08-03T02:58:56;23.50;93.30
8994;DHT22;4532;50.886;4.700;2022-08-03T03:01:26;23.50;93.30
8994;DHT22;4532;50.886;4.700;2022-08-03T03:03:55;23.50;93.40
8994;DHT22;4532;50.886;4.700;2022-08-03T03:06:24;23.40;93.30
8994;DHT22;4532;50.886;4.700;2022-08-03T03:08:56;23.40;93.40
8994;DHT22;4532;50.886;4.700;2022-08-03T03:11:26;23.40;93.40
8994;DHT22;4532;50.886;4.700;2022-08-03T03:13:56;23.40;93.40
8994;DHT22;4532;50.886;4.700;2022-08-03T03:16:25;23.30;93.40
8994;DHT22;4532;50.886;4.700;2022-08-03T03:18:53;23.30;93.50
8994;DHT22;4532;50.886;4.700;2022-08-03T03:21:21;23.30;93.50
8994;DHT22;4532;50.886;4.700;2022-08-03T03:23:50;23.20;93.50
8994;DHT22;4532;50.886;4.700;2022-08-03T03:26:18;23.20;93.50
8994;DHT22;4532;50.886;4.700;2022-08-03T03:28:50;23.20;93.50
8994;DHT22;4532;50.886;4.700;2022-08-03T03:31:18;23.10;93.50
8994;DHT22;4532;50.886;4.700;2022-08-03T03:33:48;23.10;93.50
8994;DHT22;4532;50.886;4.700;2022-08-03T03:36:15;23.10;93.60
8994;DHT22;4532;50.886;4.700;2022-08-03T03:38:45;23.10;93.70
8994;DHT22;4532;50.886;4.700;2022-08-03T03:41:14;23.00;93.70
8994;DHT22;4532;50.886;4.700;2022-08-03T03:43:42;23.00;93.80
8994;DHT22;4532;50.886;4.700;2022-08-03T03:46:11;23.00;93.80
8994;DHT22;4532;50.886;4.700;2022-08-03T03:48:39;22.90;93.70
8994;DHT22;4532;50.886;4.700;2022-08-03T03:51:07;22.90;93.70
8994;DHT22;4532;50.886;4.700;2022-08-03T03:53:34;22.90;93.80
8994;DHT22;4532;50.886;4.700;2022-08-03T03:56:01;22.80;93.80
8994;DHT22;4532;50.886;4.700;2022-08-03T03:58:30;22.80;93.80
8994;DHT22;4532;50.886;4.700;2022-08-03T04:00:58;22.80;93.80
8994;DHT22;4532;50.886;4.700;2022-08-03T04:03:26;22.70;93.80
8994;DHT22;4532;50.886;4.700;2022-08-03T04:05:58;22.70;93.80
8994;DHT22;4532;50.886;4.700;2022-08-03T04:08:45;22.70;93.90
8994;DHT22;4532;50.886;4.700;2022-08-03T04:11:35;22.60;93.90
8994;DHT22;4532;50.886;4.700;2022-08-03T04:14:08;22.60;94.00
8994;DHT22;4532;50.886;4.700;2022-08-03T04:16:38;22.60;94.00
8994;DHT22;4532;50.886;4.700;2022-08-03T04:19:17;22.50;93.90
8994;DHT22;4532;50.886;4.700;2022-08-03T04:21:52;22.50;94.00
8994;DHT22;4532;50.886;4.700;2022-08-03T04:24:31;22.50;94.00
8994;DHT22;4532;50.886;4.700;2022-08-03T04:27:02;22.50;94.10
8994;DHT22;4532;50.886;4.700;2022-08-03T04:29:34;22.40;94.00
8994;DHT22;4532;50.886;4.700;2022-08-03T04:32:15;22.40;94.00
8994;DHT22;4532;50.886;4.700;2022-08-03T04:34:43;22.40;94.00
8994;DHT22;4532;50.886;4.700;2022-08-03T04:37:21;22.40;94.00
8994;DHT22;4532;50.886;4.700;2022-08-03T04:39:51;22.40;94.20
8994;DHT22;4532;50.886;4.700;2022-08-03T04:42:24;22.40;94.10
8994;DHT22;4532;50.886;4.700;2022-08-03T04:44:52;22.40;94.00
8994;DHT22;4532;50.886;4.700;2022-08-03T04:47:32;22.40;94.10
8994;DHT22;4532;50.886;4.700;2022-08-03T04:50:03;22.40;94.20
8994;DHT22;4532;50.886;4.700;2022-08-03T04:52:39;22.40;94.20
8994;DHT22;4532;50.886;4.700;2022-08-03T04:55:06;22.40;94.30
8994;DHT22;4532;50.886;4.700;2022-08-03T04:57:36;22.40;94.20
8994;DHT22;4532;50.886;4.700;2022-08-03T05:00:05;22.40;94.20
8994;DHT22;4532;50.886;4.700;2022-08-03T05:02:35;22.40;94.30
8994;DHT22;4532;50.886;4.700;2022-08-03T05:05:05;22.40;94.20
8994;DHT22;4532;50.886;4.700;2022-08-03T05:07:34;22.40;94.30
8994;DHT22;4532;50.886;4.700;2022-08-03T05:10:08;22.40;94.40
8994;DHT22;4532;50.886;4.700;2022-08-03T05:12:44;22.40;94.30
8994;DHT22;4532;50.886;4.700;2022-08-03T05:15:12;22.40;94.30
8994;DHT22;4532;50.886;4.700;2022-08-03T05:17:39;22.40;94.30
8994;DHT22;4532;50.886;4.700;2022-08-03T05:20:07;22.50;94.40
8994;DHT22;4532;50.886;4.700;2022-08-03T05:22:34;22.50;94.40
8994;DHT22;4532;50.886;4.700;2022-08-03T05:25:02;22.50;94.50
8994;DHT22;4532;50.886;4.700;2022-08-03T05:27:31;22.50;94.50
8994;DHT22;4532;50.886;4.700;2022-08-03T05:29:59;22.50;94.80
8994;DHT22;4532;50.886;4.700;2022-08-03T05:32:46;22.50;94.50
8994;DHT22;4532;50.886;4.700;2022-08-03T05:35:13;22.50;94.50
8994;DHT22;4532;50.886;4.700;2022-08-03T05:38:02;22.60;94.50
8994;DHT22;4532;50.886;4.700;2022-08-03T05:40:32;22.60;94.60
8994;DHT22;4532;50.886;4.700;2022-08-03T05:43:00;22.60;94.60
8994;DHT22;4532;50.886;4.700;2022-08-03T05:45:27;22.60;94.60
8994;DHT22;4532;50.886;4.700;2022-08-03T05:47:57;22.70;94.70
8994;DHT22;4532;50.886;4.700;2022-08-03T05:50:27;22.70;94.70
8994;DHT22;4532;50.886;4.700;2022-08-03T05:52:57;22.70;94.70
8994;DHT22;4532;50.886;4.700;2022-08-03T05:55:26;22.80;94.80
8994;DHT22;4532;50.886;4.700;2022-08-03T05:57:53;22.80;94.80
8994;DHT22;4532;50.886;4.700;2022-08-03T06:00:23;22.90;94.90
8994;DHT22;4532;50.886;4.700;2022-08-03T06:02:51;22.90;94.90
8994;DHT22;4532;50.886;4.700;2022-08-03T06:05:18;22.90;94.90
8994;DHT22;4532;50.886;4.700;2022-08-03T06:07:46;23.00;94.90
8994;DHT22;4532;50.886;4.700;2022-08-03T06:10:16;23.00;95.00
8994;DHT22;4532;50.886;4.700;2022-08-03T06:13:03;23.00;95.00
8994;DHT22;4532;50.886;4.700;2022-08-03T06:15:33;23.10;95.00
8994;DHT22;4532;50.886;4.700;2022-08-03T06:18:01;23.20;95.10
8994;DHT22;4532;50.886;4.700;2022-08-03T06:20:28;23.20;95.10
8994;DHT22;4532;50.886;4.700;2022-08-03T06:22:56;23.20;95.10
8994;DHT22;4532;50.886;4.700;2022-08-03T06:25:27;23.30;95.20
8994;DHT22;4532;50.886;4.700;2022-08-03T06:27:54;23.40;95.20
8994;DHT22;4532;50.886;4.700;2022-08-03T06:30:22;23.40;95.20
8994;DHT22;4532;50.886;4.700;2022-08-03T06:32:49;23.40;95.20
8994;DHT22;4532;50.886;4.700;2022-08-03T06:35:18;23.50;95.30
8994;DHT22;4532;50.886;4.700;2022-08-03T06:37:48;23.50;95.30
8994;DHT22;4532;50.886;4.700;2022-08-03T06:40:18;23.60;95.30
8994;DHT22;4532;50.886;4.700;2022-08-03T06:42:50;23.70;95.40
8994;DHT22;4532;50.886;4.700;2022-08-03T06:45:17;23.70;95.40
8994;DHT22;4532;50.886;4.700;2022-08-03T06:47:58;23.70;95.40
8994;DHT22;4532;50.886;4.700;2022-08-03T06:50:25;23.80;95.40
8994;DHT22;4532;50.886;4.700;2022-08-03T06:52:53;23.80;95.40
8994;DHT22;4532;50.886;4.700;2022-08-03T06:55:20;23.90;95.50
8994;DHT22;4532;50.886;4.700;2022-08-03T06:57:47;23.90;95.40
8994;DHT22;4532;50.886;4.700;2022-08-03T07:00:15;24.00;95.50
8994;DHT22;4532;50.886;4.700;2022-08-03T07:02:45;24.00;95.50
8994;DHT22;4532;50.886;4.700;2022-08-03T07:05:14;24.00;95.50
8994;DHT22;4532;50.886;4.700;2022-08-03T07:07:43;24.10;95.50
8994;DHT22;4532;50.886;4.700;2022-08-03T07:10:11;24.20;95.60
8994;DHT22;4532;50.886;4.700;2022-08-03T07:12:38;24.30;95.60
8994;DHT22;4532;50.886;4.700;2022-08-03T07:15:23;24.30;95.60
8994;DHT22;4532;50.886;4.700;2022-08-03T07:18:10;24.40;95.70
8994;DHT22;4532;50.886;4.700;2022-08-03T07:20:37;24.40;95.70
8994;DHT22;4532;50.886;4.700;2022-08-03T07:23:04;24.40;95.70
8994;DHT22;4532;50.886;4.700;2022-08-03T07:25:32;24.50;95.70
8994;DHT22;4532;50.886;4.700;2022-08-03T07:28:01;24.60;95.80
8994;DHT22;4532;50.886;4.700;2022-08-03T07:30:28;24.60;95.80
8994;DHT22;4532;50.886;4.700;2022-08-03T07:32:56;24.70;95.90
8994;DHT22;4532;50.886;4.700;2022-08-03T07:35:23;24.70;95.80
8994;DHT22;4532;50.886;4.700;2022-08-03T07:37:54;24.80;95.80
8994;DHT22;4532;50.886;4.700;2022-08-03T07:40:21;24.80;95.70
8994;DHT22;4532;50.886;4.700;2022-08-03T07:42:52;24.90;95.70
8994;DHT22;4532;50.886;4.700;2022-08-03T07:45:20;25.00;95.70
8994;DHT22;4532;50.886;4.700;2022-08-03T07:47:49;25.00;95.60
8994;DHT22;4532;50.886;4.700;2022-08-03T07:50:20;25.10;95.70
8994;DHT22;4532;50.886;4.700;2022-08-03T07:52:48;25.30;95.70
8994;DHT22;4532;50.886;4.700;2022-08-03T07:55:18;25.30;95.60
8994;DHT22;4532;50.886;4.700;2022-08-03T07:57:51;25.40;95.60
8994;DHT22;4532;50.886;4.700;2022-08-03T08:00:27;25.40;95.70
8994;DHT22;4532;50.886;4.700;2022-08-03T08:02:57;25.40;95.80
8994;DHT22;4532;50.886;4.700;2022-08-03T08:05:24;25.50;95.80
8994;DHT22;4532;50.886;4.700;2022-08-03T08:07:57;25.50;95.80
8994;DHT22;4532;50.886;4.700;2022-08-03T08:10:25;25.50;95.70
8994;DHT22;4532;50.886;4.700;2022-08-03T08:12:52;25.60;95.70
8994;DHT22;4532;50.886;4.700;2022-08-03T08:15:22;25.70;95.80
8994;DHT22;4532;50.886;4.700;2022-08-03T08:17:51;25.70;95.70
8994;DHT22;4532;50.886;4.700;2022-08-03T08:20:22;25.70;95.50
8994;DHT22;4532;50.886;4.700;2022-08-03T08:23:01;25.70;95.30
8994;DHT22;4532;50.886;4.700;2022-08-03T08:25:30;25.70;95.40
8994;DHT22;4532;50.886;4.700;2022-08-03T08:27:59;25.80;95.50
8994;DHT22;4532;50.886;4.700;2022-08-03T08:30:54;25.80;95.30
8994;DHT22;4532;50.886;4.700;2022-08-03T08:33:21;25.80;95.30
8994;DHT22;4532;50.886;4.700;2022-08-03T08:35:53;25.90;95.40
8994;DHT22;4532;50.886;4.700;2022-08-03T08:38:21;25.90;95.30
8994;DHT22;4532;50.886;4.700;2022-08-03T08:40:49;26.00;95.40
8994;DHT22;4532;50.886;4.700;2022-08-03T08:43:16;26.00;95.40
8994;DHT22;4532;50.886;4.700;2022-08-03T08:45:46;26.10;95.30
8994;DHT22;4532;50.886;4.700;2022-08-03T08:48:17;26.10;95.30
8994;DHT22;4532;50.886;4.700;2022-08-03T08:50:48;26.20;95.10
8994;DHT22;4532;50.886;4.700;2022-08-03T08:53:19;26.30;95.10
8994;DHT22;4532;50.886;4.700;2022-08-03T08:55:59;26.30;95.30
8994;DHT22;4532;50.886;4.700;2022-08-03T08:58:37;26.30;95.30
8994;DHT22;4532;50.886;4.700;2022-08-03T09:01:10;26.40;95.40
8994;DHT22;4532;50.886;4.700;2022-08-03T09:03:37;26.40;95.40
8994;DHT22;4532;50.886;4.700;2022-08-03T09:06:05;26.50;95.40
8994;DHT22;4532;50.886;4.700;2022-08-03T09:08:32;26.60;95.80
8994;DHT22;4532;50.886;4.700;2022-08-03T09:11:00;26.60;95.50
8994;DHT22;4532;50.886;4.700;2022-08-03T09:13:27;26.60;95.50
8994;DHT22;4532;50.886;4.700;2022-08-03T09:16:12;26.70;95.50
8994;DHT22;4532;50.886;4.700;2022-08-03T09:18:44;26.80;95.60
8994;DHT22;4532;50.886;4.700;2022-08-03T09:21:25;26.80;95.40
8994;DHT22;4532;50.886;4.700;2022-08-03T09:24:02;26.90;95.50
8994;DHT22;4532;50.886;4.700;2022-08-03T09:26:38;26.90;95.50
8994;DHT22;4532;50.886;4.700;2022-08-03T09:29:08;27.00;95.10
8994;DHT22;4532;50.886;4.700;2022-08-03T09:31:46;27.10;95.40
8994;DHT22;4532;50.886;4.700;2022-08-03T09:34:16;27.10;95.30
8994;DHT22;4532;50.886;4.700;2022-08-03T09:36:48;27.10;95.00
8994;DHT22;4532;50.886;4.700;2022-08-03T09:39:21;27.20;95.10
8994;DHT22;4532;50.886;4.700;2022-08-03T09:42:16;27.20;95.30
8994;DHT22;4532;50.886;4.700;2022-08-03T09:44:49;27.30;94.80
8994;DHT22;4532;50.886;4.700;2022-08-03T09:47:28;27.30;95.30
8994;DHT22;4532;50.886;4.700;2022-08-03T09:52:31;27.40;95.20
8994;DHT22;4532;50.886;4.700;2022-08-03T09:55:15;27.50;95.30
8994;DHT22;4532;50.886;4.700;2022-08-03T09:58:05;27.50;95.20
8994;DHT22;4532;50.886;4.700;2022-08-03T10:00:57;27.60;95.10
8994;DHT22;4532;50.886;4.700;2022-08-03T10:03:27;27.70;95.30
8994;DHT22;4532;50.886;4.700;2022-08-03T10:05:57;27.70;95.10
8994;DHT22;4532;50.886;4.700;2022-08-03T10:08:26;27.80;95.20
8994;DHT22;4532;50.886;4.700;2022-08-03T10:10:53;27.80;95.20
8994;DHT22;4532;50.886;4.700;2022-08-03T10:13:21;27.80;95.20
8994;DHT22;4532;50.886;4.700;2022-08-03T10:15:51;27.90;95.20
8994;DHT22;4532;50.886;4.700;2022-08-03T10:18:38;27.90;94.90
8994;DHT22;4532;50.886;4.700;2022-08-03T10:21:07;28.00;94.90
8994;DHT22;4532;50.886;4.700;2022-08-03T10:23:37;28.10;94.70
8994;DHT22;4532;50.886;4.700;2022-08-03T10:26:09;28.10;94.80
8994;DHT22;4532;50.886;4.700;2022-08-03T10:28:41;28.20;95.00
8994;DHT22;4532;50.886;4.700;2022-08-03T10:31:13;28.20;95.10
8994;DHT22;4532;50.886;4.700;2022-08-03T10:33:43;28.30;95.00
8994;DHT22;4532;50.886;4.700;2022-08-03T10:36:21;28.30;95.10
8994;DHT22;4532;50.886;4.700;2022-08-03T10:38:54;28.40;95.10
8994;DHT22;4532;50.886;4.700;2022-08-03T10:41:25;28.50;95.00
8994;DHT22;4532;50.886;4.700;2022-08-03T10:44:07;28.50;95.20
8994;DHT22;4532;50.886;4.700;2022-08-03T10:46:36;28.50;95.20
8994;DHT22;4532;50.886;4.700;2022-08-03T10:49:16;28.60;95.10
8994;DHT22;4532;50.886;4.700;2022-08-03T10:52:02;28.70;95.10
8994;DHT22;4532;50.886;4.700;2022-08-03T10:54:43;28.70;94.90
8994;DHT22;4532;50.886;4.700;2022-08-03T10:57:53;28.80;94.60
8994;DHT22;4532;50.886;4.700;2022-08-03T11:00:27;28.90;95.00
8994;DHT22;4532;50.886;4.700;2022-08-03T11:03:09;28.90;95.00
8994;DHT22;4532;50.886;4.700;2022-08-03T11:05:44;29.00;95.00
8994;DHT22;4532;50.886;4.700;2022-08-03T11:08:21;29.00;94.90
8994;DHT22;4532;50.886;4.700;2022-08-03T11:10:51;29.10;94.70
8994;DHT22;4532;50.886;4.700;2022-08-03T11:13:21;29.10;94.90
8994;DHT22;4532;50.886;4.700;2022-08-03T11:15:51;29.10;94.60
8994;DHT22;4532;50.886;4.700;2022-08-03T11:18:26;29.20;94.40
8994;DHT22;4532;50.886;4.700;2022-08-03T11:20:58;29.20;94.70
8994;DHT22;4532;50.886;4.700;2022-08-03T11:26:28;29.30;94.90
8994;DHT22;4532;50.886;4.700;2022-08-03T11:29:28;29.30;94.20
8994;DHT22;4532;50.886;4.700;2022-08-03T11:31:56;29.40;94.40
8994;DHT22;4532;50.886;4.700;2022-08-03T11:34:26;29.40;94.40
8994;DHT22;4532;50.886;4.700;2022-08-03T11:37:21;29.40;93.80
8994;DHT22;4532;50.886;4.700;2022-08-03T11:39:51;29.40;94.40
8994;DHT22;4532;50.886;4.700;2022-08-03T11:44:55;29.50;94.10
8994;DHT22;4532;50.886;4.700;2022-08-03T11:47:27;29.60;93.90
8994;DHT22;4532;50.886;4.700;2022-08-03T11:49:58;29.60;94.00
8994;DHT22;4532;50.886;4.700;2022-08-03T11:52:34;29.70;94.10
8994;DHT22;4532;50.886;4.700;2022-08-03T11:55:02;29.70;94.10
8994;DHT22;4532;50.886;4.700;2022-08-03T11:57:34;29.70;94.00
8994;DHT22;4532;50.886;4.700;2022-08-03T12:00:25;29.80;94.00
8994;DHT22;4532;50.886;4.700;2022-08-03T12:03:01;29.80;94.00
8994;DHT22;4532;50.886;4.700;2022-08-03T12:05:37;29.90;94.20
8994;DHT22;4532;50.886;4.700;2022-08-03T12:08:06;30.00;93.80
8994;DHT22;4532;50.886;4.700;2022-08-03T12:10:37;30.00;93.40
8994;DHT22;4532;50.886;4.700;2022-08-03T12:13:08;30.00;93.60
8994;DHT22;4532;50.886;4.700;2022-08-03T12:15:56;30.00;93.50
8994;DHT22;4532;50.886;4.700;2022-08-03T12:18:26;30.10;93.90
8994;DHT22;4532;50.886;4.700;2022-08-03T12:21:07;30.10;93.90
8994;DHT22;4532;50.886;4.700;2022-08-03T12:23:35;30.10;93.80
8994;DHT22;4532;50.886;4.700;2022-08-03T12:26:06;30.10;93.20
8994;DHT22;4532;50.886;4.700;2022-08-03T12:28:35;30.20;93.60
8994;DHT22;4532;50.886;4.700;2022-08-03T12:31:06;30.20;93.90
8994;DHT22;4532;50.886;4.700;2022-08-03T12:34:00;30.30;93.90
8994;DHT22;4532;50.886;4.700;2022-08-03T12:36:33;30.40;93.90
8994;DHT22;4532;50.886;4.700;2022-08-03T12:39:04;30.50;93.90
8994;DHT22;4532;50.886;4.700;2022-08-03T12:44:02;30.60;94.00
8994;DHT22;4532;50.886;4.700;2022-08-03T12:46:38;30.70;93.30
8994;DHT22;4532;50.886;4.700;2022-08-03T12:49:14;30.70;93.00
8994;DHT22;4532;50.886;4.700;2022-08-03T12:54:24;30.90;93.10
8994;DHT22;4532;50.886;4.700;2022-08-03T12:57:03;30.90;93.60
8994;DHT22;4532;50.886;4.700;2022-08-03T12:59:38;31.00;93.30
8994;DHT22;4532;50.886;4.700;2022-08-03T13:02:23;31.10;93.50
8994;DHT22;4532;50.886;4.700;2022-08-03T13:04:54;31.10;93.80
8994;DHT22;4532;50.886;4.700;2022-08-03T13:07:22;31.20;93.00
8994;DHT22;4532;50.886;4.700;2022-08-03T13:09:54;31.20;93.20
8994;DHT22;4532;50.886;4.700;2022-08-03T13:12:26;31.20;93.00
8994;DHT22;4532;50.886;4.700;2022-08-03T13:14:56;31.20;92.70
8994;DHT22;4532;50.886;4.700;2022-08-03T13:17:24;31.20;92.90
8994;DHT22;4532;50.886;4.700;2022-08-03T13:19:54;31.30;92.70
8994;DHT22;4532;50.886;4.700;2022-08-03T13:22:26;31.30;93.10
8994;DHT22;4532;50.886;4.700;2022-08-03T13:24:57;31.40;93.00
8994;DHT22;4532;50.886;4.700;2022-08-03T13:27:30;31.50;93.20
8994;DHT22;4532;50.886;4.700;2022-08-03T13:30:17;31.60;93.00
8994;DHT22;4532;50.886;4.700;2022-08-03T13:32:56;31.60;92.70
8994;DHT22;4532;50.886;4.700;2022-08-03T13:35:25;31.70;92.50
8994;DHT22;4532;50.886;4.700;2022-08-03T13:37:57;31.70;92.40
8994;DHT22;4532;50.886;4.700;2022-08-03T13:40:25;31.70;91.20
8994;DHT22;4532;50.886;4.700;2022-08-03T13:42:58;31.70;91.80
8994;DHT22;4532;50.886;4.700;2022-08-03T13:45:30;31.70;91.70
8994;DHT22;4532;50.886;4.700;2022-08-03T13:47:57;31.80;92.20
8994;DHT22;4532;50.886;4.700;2022-08-03T13:50:24;31.90;92.20
8994;DHT22;4532;50.886;4.700;2022-08-03T13:52:58;31.90;92.20
8994;DHT22;4532;50.886;4.700;2022-08-03T13:55:27;32.00;91.90
8994;DHT22;4532;50.886;4.700;2022-08-03T13:57:58;32.00;92.00
8994;DHT22;4532;50.886;4.700;2022-08-03T14:00:49;32.10;92.10
8994;DHT22;4532;50.886;4.700;2022-08-03T14:03:21;32.20;90.80
8994;DHT22;4532;50.886;4.700;2022-08-03T14:05:49;32.20;91.60
8994;DHT22;4532;50.886;4.700;2022-08-03T14:08:16;32.20;92.00
8994;DHT22;4532;50.886;4.700;2022-08-03T14:10:44;32.20;92.20
8994;DHT22;4532;50.886;4.700;2022-08-03T14:13:12;32.30;92.60
8994;DHT22;4532;50.886;4.700;2022-08-03T14:15:46;32.40;92.30
8994;DHT22;4532;50.886;4.700;2022-08-03T14:18:20;32.40;92.20
8994;DHT22;4532;50.886;4.700;2022-08-03T14:21:01;32.50;92.40
8994;DHT22;4532;50.886;4.700;2022-08-03T14:23:35;32.60;92.30
8994;DHT22;4532;50.886;4.700;2022-08-03T14:26:10;32.60;92.50
8994;DHT22;4532;50.886;4.700;2022-08-03T14:28:40;32.70;92.60
8994;DHT22;4532;50.886;4.700;2022-08-03T14:31:07;32.70;92.50
8994;DHT22;4532;50.886;4.700;2022-08-03T14:33:59;32.80;90.70
8994;DHT22;4532;50.886;4.700;2022-08-03T14:36:27;32.80;92.20
8994;DHT22;4532;50.886;4.700;2022-08-03T14:38:57;32.90;92.30
8994;DHT22;4532;50.886;4.700;2022-08-03T14:41:27;32.90;92.40
8994;DHT22;4532;50.886;4.700;2022-08-03T14:43:54;33.00;92.50
8994;DHT22;4532;50.886;4.700;2022-08-03T14:46:30;33.00;92.50
8994;DHT22;4532;50.886;4.700;2022-08-03T14:48:58;33.10;92.50
8994;DHT22;4532;50.886;4.700;2022-08-03T14:51:47;33.20;92.50
8994;DHT22;4532;50.886;4.700;2022-08-03T14:54:20;33.30;92.00
8994;DHT22;4532;50.886;4.700;2022-08-03T14:56:48;33.40;92.30
8994;DHT22;4532;50.886;4.700;2022-08-03T14:59:16;33.40;91.90
8994;DHT22;4532;50.886;4.700;2022-08-03T15:01:43;33.50;92.40
8994;DHT22;4532;50.886;4.700;2022-08-03T15:04:32;33.60;92.50
8994;DHT22;4532;50.886;4.700;2022-08-03T15:07:00;33.70;92.60
8994;DHT22;4532;50.886;4.700;2022-08-03T15:09:27;33.70;92.60
8994;DHT22;4532;50.886;4.700;2022-08-03T15:11:56;33.80;92.60
8994;DHT22;4532;50.886;4.700;2022-08-03T15:14:24;33.90;92.60
8994;DHT22;4532;50.886;4.700;2022-08-03T15:16:59;33.90;92.50
8994;DHT22;4532;50.886;4.700;2022-08-03T15:19:28;33.90;92.40
8994;DHT22;4532;50.886;4.700;2022-08-03T15:22:18;34.00;92.40
8994;DHT22;4532;50.886;4.700;2022-08-03T15:24:51;34.00;91.80
8994;DHT22;4532;50.886;4.700;2022-08-03T15:27:18;34.00;91.90
8994;DHT22;4532;50.886;4.700;2022-08-03T15:29:48;34.00;92.10
8994;DHT22;4532;50.886;4.700;2022-08-03T15:32:35;34.10;91.90
8994;DHT22;4532;50.886;4.700;2022-08-03T15:35:02;34.10;92.00
8994;DHT22;4532;50.886;4.700;2022-08-03T15:37:32;34.20;91.70
8994;DHT22;4532;50.886;4.700;2022-08-03T15:39:59;34.20;91.80
8994;DHT22;4532;50.886;4.700;2022-08-03T15:42:31;34.20;91.90
8994;DHT22;4532;50.886;4.700;2022-08-03T15:45:02;34.30;91.90
8994;DHT22;4532;50.886;4.700;2022-08-03T15:47:31;34.30;92.00
8994;DHT22;4532;50.886;4.700;2022-08-03T15:49:58;34.30;92.00
8994;DHT22;4532;50.886;4.700;2022-08-03T15:52:25;34.40;92.00
8994;DHT22;4532;50.886;4.700;2022-08-03T15:54:57;34.50;92.00
8994;DHT22;4532;50.886;4.700;2022-08-03T15:57:27;34.50;91.20
8994;DHT22;4532;50.886;4.700;2022-08-03T15:59:59;34.50;91.40
8994;DHT22;4532;50.886;4.700;2022-08-03T16:02:31;34.50;91.40
8994;DHT22;4532;50.886;4.700;2022-08-03T16:04:58;34.50;91.50
8994;DHT22;4532;50.886;4.700;2022-08-03T16:07:26;34.50;91.60
8994;DHT22;4532;50.886;4.700;2022-08-03T16:10:29;34.60;91.30
8994;DHT22;4532;50.886;4.700;2022-08-03T16:13:01;34.50;90.50
8994;DHT22;4532;50.886;4.700;2022-08-03T16:15:28;34.50;90.70
8994;DHT22;4532;50.886;4.700;2022-08-03T16:18:07;34.50;91.00
8994;DHT22;4532;50.886;4.700;2022-08-03T16:20:39;34.50;91.10
8994;DHT22;4532;50.886;4.700;2022-08-03T16:23:13;34.50;90.90
8994;DHT22;4532;50.886;4.700;2022-08-03T16:25:42;34.50;90.60
8994;DHT22;4532;50.886;4.700;2022-08-03T16:28:15;34.50;90.70
8994;DHT22;4532;50.886;4.700;2022-08-03T16:30:46;34.60;90.80
8994;DHT22;4532;50.886;4.700;2022-08-03T16:33:16;34.60;90.90
8994;DHT22;4532;50.886;4.700;2022-08-03T16:35:46;34.70;91.00
8994;DHT22;4532;50.886;4.700;2022-08-03T16:38:18;34.80;91.10
8994;DHT22;4532;50.886;4.700;2022-08-03T16:40:49;34.80;90.80
8994;DHT22;4532;50.886;4.700;2022-08-03T16:43:20;34.90;91.10
8994;DHT22;4532;50.886;4.700;2022-08-03T16:45:48;35.00;90.80
8994;DHT22;4532;50.886;4.700;2022-08-03T16:48:17;35.10;91.00
8994;DHT22;4532;50.886;4.700;2022-08-03T16:50:47;35.10;91.00
8994;DHT22;4532;50.886;4.700;2022-08-03T16:53:15;35.20;91.00
8994;DHT22;4532;50.886;4.700;2022-08-03T16:56:02;35.20;90.80
8994;DHT22;4532;50.886;4.700;2022-08-03T16:58:36;35.30;90.70
8994;DHT22;4532;50.886;4.700;2022-08-03T17:01:15;35.30;90.90